sensor_id;sensor_type;location;lat;lon;timestamp;temperature;humidity
2897;DHT22;1458;49.728;9.228;2023-05-23T00:01:52;15.60;99.90
2897;DHT22;1458;49.728;9.228;2023-05-23T00:04:24;15.60;99.90
2897;DHT22;1458;49.728;9.228;2023-05-23T00:06:52;15.60;99.90
2897;DHT22;1458;49.728;9.228;2023-05-23T00:09:20;15.60;99.90
2897;DHT22;1458;49.728;9.228;2023-05-23T00:11:48;15.60;99.90
2897;DHT22;1458;49.728;9.228;2023-05-23T00:14:16;15.60;99.90
2897;DHT22;1458;49.728;9.228;2023-05-23T00:16:44;15.70;99.90
2897;DHT22;1458;49.728;9.228;2023-05-23T00:19:14;15.70;99.90
2897;DHT22;1458;49.728;9.228;2023-05-23T00:21:45;15.70;99.90
2897;DHT22;1458;49.728;9.228;2023-05-23T00:24:14;15.60;99.90
2897;DHT22;1458;49.728;9.228;2023-05-23T00:26:45;15.70;99.90
2897;DHT22;1458;49.728;9.228;2023-05-23T00:29:14;15.70;99.90
2897;DHT22;1458;49.728;9.228;2023-05-23T00:31:42;15.80;99.90
2897;DHT22;1458;49.728;9.228;2023-05-23T00:34:11;15.80;99.90
2897;DHT22;1458;49.728;9.228;2023-05-23T00:36:39;15.80;99.90
2897;DHT22;1458;49.728;9.228;2023-05-23T00:39:10;15.80;99.90
2897;DHT22;1458;49.728;9.228;2023-05-23T00:41:44;15.80;99.90
2897;DHT22;1458;49.728;9.228;2023-05-23T00:44:12;15.70;99.90
2897;DHT22;1458;49.728;9.228;2023-05-23T00:46:42;15.90;99.90
2897;DHT22;1458;49.728;9.228;2023-05-23T00:49:11;15.80;99.90
2897;DHT22;1458;49.728;9.228;2023-05-23T00:51:39;15.60;99.90
2897;DHT22;1458;49.728;9.228;2023-05-23T00:54:10;15.60;99.90
2897;DHT22;1458;49.728;9.228;2023-05-23T00:56:38;15.50;99.90
2897;DHT22;1458;49.728;9.228;2023-05-23T00:59:07;15.50;99.90
2897;DHT22;1458;49.728;9.228;2023-05-23T01:01:34;15.50;99.90
2897;DHT22;1458;49.728;9.228;2023-05-23T01:04:02;15.40;99.90
2897;DHT22;1458;49.728;9.228;2023-05-23T01:06:31;15.50;99.90
2897;DHT22;1458;49.728;9.228;2023-05-23T01:08:59;15.50;99.90
2897;DHT22;1458;49.728;9.228;2023-05-23T01:11:32;15.40;99.90
2897;DHT22;1458;49.728;9.228;2023-05-23T01:14:08;15.30;99.90
2897;DHT22;1458;49.728;9.228;2023-05-23T01:16:43;15.40;99.90
2897;DHT22;1458;49.728;9.228;2023-05-23T01:19:43;15.50;99.90
2897;DHT22;1458;49.728;9.228;2023-05-23T01:22:22;15.50;99.90
2897;DHT22;1458;49.728;9.228;2023-05-23T01:25:15;15.50;99.90
2897;DHT22;1458;49.728;9.228;2023-05-23T01:27:56;15.50;99.90
2897;DHT22;1458;49.728;9.228;2023-05-23T01:30:31;15.40;99.90
2897;DHT22;1458;49.728;9.228;2023-05-23T01:33:00;15.30;99.90
2897;DHT22;1458;49.728;9.228;2023-05-23T01:35:28;15.30;99.90
2897;DHT22;1458;49.728;9.228;2023-05-23T01:37:56;15.10;99.90
2897;DHT22;1458;49.728;9.228;2023-05-23T01:40:24;15.10;99.90
2897;DHT22;1458;49.728;9.228;2023-05-23T01:42:55;15.20;99.90
2897;DHT22;1458;49.728;9.228;2023-05-23T01:45:25;15.20;99.90
2897;DHT22;1458;49.728;9.228;2023-05-23T01:47:54;15.30;99.90
2897;DHT22;1458;49.728;9.228;2023-05-23T01:50:23;15.20;99.90
2897;DHT22;1458;49.728;9.228;2023-05-23T01:52:52;15.10;99.90
2897;DHT22;1458;49.728;9.228;2023-05-23T01:55:24;15.20;99.90
2897;DHT22;1458;49.728;9.228;2023-05-23T01:57:56;15.30;99.90
2897;DHT22;1458;49.728;9.228;2023-05-23T02:00:24;15.20;99.90
2897;DHT22;1458;49.728;9.228;2023-05-23T02:02:52;15.20;99.90
2897;DHT22;1458;49.728;9.228;2023-05-23T02:05:20;15.20;99.90
2897;DHT22;1458;49.728;9.228;2023-05-23T02:07:48;15.20;99.90
2897;DHT22;1458;49.728;9.228;2023-05-23T02:10:17;15.30;99.90
2897;DHT22;1458;49.728;9.228;2023-05-23T02:12:45;15.30;99.90
2897;DHT22;1458;49.728;9.228;2023-05-23T02:15:15;15.40;99.90
2897;DHT22;1458;49.728;9.228;2023-05-23T02:17:43;15.40;99.90
2897;DHT22;1458;49.728;9.228;2023-05-23T02:20:15;15.50;99.90
2897;DHT22;1458;49.728;9.228;2023-05-23T02:22:43;15.60;99.90
2897;DHT22;1458;49.728;9.228;2023-05-23T02:25:13;15.60;99.90
2897;DHT22;1458;49.728;9.228;2023-05-23T02:27:42;15.50;99.90
2897;DHT22;1458;49.728;9.228;2023-05-23T02:30:10;15.50;99.90
2897;DHT22;1458;49.728;9.228;2023-05-23T02:32:40;15.70;99.90
2897;DHT22;1458;49.728;9.228;2023-05-23T02:35:08;15.70;99.90
2897;DHT22;1458;49.728;9.228;2023-05-23T02:37:36;15.80;99.90
2897;DHT22;1458;49.728;9.228;2023-05-23T02:40:05;15.70;99.90
2897;DHT22;1458;49.728;9.228;2023-05-23T02:42:35;15.90;99.90
2897;DHT22;1458;49.728;9.228;2023-05-23T02:45:03;15.90;99.90
2897;DHT22;1458;49.728;9.228;2023-05-23T02:47:32;15.90;99.90
2897;DHT22;1458;49.728;9.228;2023-05-23T02:50:01;15.90;99.90
2897;DHT22;1458;49.728;9.228;2023-05-23T02:52:31;15.90;99.90
2897;DHT22;1458;49.728;9.228;2023-05-23T02:54:59;16.10;99.90
2897;DHT22;1458;49.728;9.228;2023-05-23T02:57:29;16.30;99.90
2897;DHT22;1458;49.728;9.228;2023-05-23T02:59:57;16.40;99.90
2897;DHT22;1458;49.728;9.228;2023-05-23T03:02:25;16.50;99.90
2897;DHT22;1458;49.728;9.228;2023-05-23T03:04:53;16.60;99.90
2897;DHT22;1458;49.728;9.228;2023-05-23T03:07:23;16.60;99.90
2897;DHT22;1458;49.728;9.228;2023-05-23T03:09:54;16.60;99.90
2897;DHT22;1458;49.728;9.228;2023-05-23T03:12:21;16.50;99.90
2897;DHT22;1458;49.728;9.228;2023-05-23T03:14:49;16.40;99.90
2897;DHT22;1458;49.728;9.228;2023-05-23T03:17:17;16.40;99.90
2897;DHT22;1458;49.728;9.228;2023-05-23T03:19:45;16.50;99.90
2897;DHT22;1458;49.728;9.228;2023-05-23T03:22:16;16.60;99.90
2897;DHT22;1458;49.728;9.228;2023-05-23T03:24:45;16.50;99.90
2897;DHT22;1458;49.728;9.228;2023-05-23T03:27:13;16.50;99.90
2897;DHT22;1458;49.728;9.228;2023-05-23T03:29:43;16.50;99.90
2897;DHT22;1458;49.728;9.228;2023-05-23T03:32:11;16.50;99.90
2897;DHT22;1458;49.728;9.228;2023-05-23T03:34:39;16.40;99.90
2897;DHT22;1458;49.728;9.228;2023-05-23T03:37:07;16.50;99.90
2897;DHT22;1458;49.728;9.228;2023-05-23T03:39:35;16.50;99.90
2897;DHT22;1458;49.728;9.228;2023-05-23T03:42:05;16.50;99.90
2897;DHT22;1458;49.728;9.228;2023-05-23T03:44:33;16.60;99.90
2897;DHT22;1458;49.728;9.228;2023-05-23T03:47:02;16.60;99.90
2897;DHT22;1458;49.728;9.228;2023-05-23T03:49:31;16.60;99.90
2897;DHT22;1458;49.728;9.228;2023-05-23T03:51:59;16.60;99.90
2897;DHT22;1458;49.728;9.228;2023-05-23T03:54:28;16.70;99.90
2897;DHT22;1458;49.728;9.228;2023-05-23T03:56:56;16.70;99.90
2897;DHT22;1458;49.728;9.228;2023-05-23T03:59:25;16.70;99.90
2897;DHT22;1458;49.728;9.228;2023-05-23T04:01:53;16.70;99.90
2897;DHT22;1458;49.728;9.228;2023-05-23T04:04:24;16.70;99.90
2897;DHT22;1458;49.728;9.228;2023-05-23T04:06:54;16.70;99.90
2897;DHT22;1458;49.728;9.228;2023-05-23T04:09:23;16.70;99.90
2897;DHT22;1458;49.728;9.228;2023-05-23T04:11:52;16.70;99.90
2897;DHT22;1458;49.728;9.228;2023-05-23T04:14:21;16.80;99.90
2897;DHT22;1458;49.728;9.228;2023-05-23T04:16:52;16.90;99.90
2897;DHT22;1458;49.728;9.228;2023-05-23T04:19:20;16.80;99.90
2897;DHT22;1458;49.728;9.228;2023-05-23T04:21:48;16.90;99.90
2897;DHT22;1458;49.728;9.228;2023-05-23T04:24:16;16.90;99.90
2897;DHT22;1458;49.728;9.228;2023-05-23T04:26:44;17.00;99.90
2897;DHT22;1458;49.728;9.228;2023-05-23T04:29:12;17.10;99.90
2897;DHT22;1458;49.728;9.228;2023-05-23T04:31:41;17.20;99.90
2897;DHT22;1458;49.728;9.228;2023-05-23T04:34:12;17.30;99.90
2897;DHT22;1458;49.728;9.228;2023-05-23T04:36:42;17.30;99.90
2897;DHT22;1458;49.728;9.228;2023-05-23T04:39:10;17.40;99.90
2897;DHT22;1458;49.728;9.228;2023-05-23T04:41:46;17.40;99.90
2897;DHT22;1458;49.728;9.228;2023-05-23T04:44:38;17.30;99.90
2897;DHT22;1458;49.728;9.228;2023-05-23T04:47:13;17.20;99.90
2897;DHT22;1458;49.728;9.228;2023-05-23T04:50:14;17.20;99.90
2897;DHT22;1458;49.728;9.228;2023-05-23T04:52:53;17.20;99.90
2897;DHT22;1458;49.728;9.228;2023-05-23T04:55:27;17.20;99.90
2897;DHT22;1458;49.728;9.228;2023-05-23T04:57:55;17.30;99.90
2897;DHT22;1458;49.728;9.228;2023-05-23T05:00:23;17.30;99.90
2897;DHT22;1458;49.728;9.228;2023-05-23T05:02:52;17.20;99.90
2897;DHT22;1458;49.728;9.228;2023-05-23T05:05:24;17.30;99.90
2897;DHT22;1458;49.728;9.228;2023-05-23T05:07:52;17.20;99.90
2897;DHT22;1458;49.728;9.228;2023-05-23T05:10:21;17.20;99.90
2897;DHT22;1458;49.728;9.228;2023-05-23T05:12:49;17.10;99.90
2897;DHT22;1458;49.728;9.228;2023-05-23T05:15:28;17.00;99.90
2897;DHT22;1458;49.728;9.228;2023-05-23T05:18:04;17.00;99.90
2897;DHT22;1458;49.728;9.228;2023-05-23T05:20:33;17.10;99.90
2897;DHT22;1458;49.728;9.228;2023-05-23T05:23:04;17.10;99.90
2897;DHT22;1458;49.728;9.228;2023-05-23T05:25:49;17.10;99.90
2897;DHT22;1458;49.728;9.228;2023-05-23T05:28:32;17.00;99.90
2897;DHT22;1458;49.728;9.228;2023-05-23T05:31:07;17.10;99.90
2897;DHT22;1458;49.728;9.228;2023-05-23T05:33:36;17.10;99.90
2897;DHT22;1458;49.728;9.228;2023-05-23T05:36:13;17.10;99.90
2897;DHT22;1458;49.728;9.228;2023-05-23T05:38:42;17.10;99.90
2897;DHT22;1458;49.728;9.228;2023-05-23T05:41:10;17.20;99.90
2897;DHT22;1458;49.728;9.228;2023-05-23T05:43:49;17.30;99.90
2897;DHT22;1458;49.728;9.228;2023-05-23T05:46:20;17.10;99.90
2897;DHT22;1458;49.728;9.228;2023-05-23T05:48:49;16.90;99.90
2897;DHT22;1458;49.728;9.228;2023-05-23T05:51:19;16.80;99.90
2897;DHT22;1458;49.728;9.228;2023-05-23T05:53:47;16.80;99.90
2897;DHT22;1458;49.728;9.228;2023-05-23T05:56:19;16.70;99.90
2897;DHT22;1458;49.728;9.228;2023-05-23T05:58:48;17.00;99.90
2897;DHT22;1458;49.728;9.228;2023-05-23T06:01:18;17.20;99.90
2897;DHT22;1458;49.728;9.228;2023-05-23T06:03:49;17.50;99.90
2897;DHT22;1458;49.728;9.228;2023-05-23T06:06:21;17.60;99.90
2897;DHT22;1458;49.728;9.228;2023-05-23T06:08:49;17.70;99.90
2897;DHT22;1458;49.728;9.228;2023-05-23T06:11:20;17.40;99.90
2897;DHT22;1458;49.728;9.228;2023-05-23T06:13:57;17.40;99.90
2897;DHT22;1458;49.728;9.228;2023-05-23T06:16:27;17.30;99.90
2897;DHT22;1458;49.728;9.228;2023-05-23T06:18:56;17.50;99.90
2897;DHT22;1458;49.728;9.228;2023-05-23T06:21:29;17.50;99.90
2897;DHT22;1458;49.728;9.228;2023-05-23T06:24:06;17.50;99.90
2897;DHT22;1458;49.728;9.228;2023-05-23T06:26:34;17.40;99.90
2897;DHT22;1458;49.728;9.228;2023-05-23T06:29:07;17.40;99.90
2897;DHT22;1458;49.728;9.228;2023-05-23T06:31:35;17.20;99.90
2897;DHT22;1458;49.728;9.228;2023-05-23T06:34:07;17.10;99.90
2897;DHT22;1458;49.728;9.228;2023-05-23T06:36:36;17.10;99.90
2897;DHT22;1458;49.728;9.228;2023-05-23T06:39:04;17.20;99.90
2897;DHT22;1458;49.728;9.228;2023-05-23T06:41:35;17.40;99.90
2897;DHT22;1458;49.728;9.228;2023-05-23T06:44:03;17.60;99.90
2897;DHT22;1458;49.728;9.228;2023-05-23T06:46:32;18.00;99.90
2897;DHT22;1458;49.728;9.228;2023-05-23T06:49:01;18.20;98.60
2897;DHT22;1458;49.728;9.228;2023-05-23T06:51:28;18.10;97.80
2897;DHT22;1458;49.728;9.228;2023-05-23T06:53:58;17.90;97.50
2897;DHT22;1458;49.728;9.228;2023-05-23T06:56:25;17.60;96.50
2897;DHT22;1458;49.728;9.228;2023-05-23T06:58:57;17.80;96.40
2897;DHT22;1458;49.728;9.228;2023-05-23T07:01:26;17.80;96.20
2897;DHT22;1458;49.728;9.228;2023-05-23T07:03:54;17.80;94.70
2897;DHT22;1458;49.728;9.228;2023-05-23T07:06:23;17.50;94.90
2897;DHT22;1458;49.728;9.228;2023-05-23T07:08:52;17.50;94.90
2897;DHT22;1458;49.728;9.228;2023-05-23T07:11:23;17.40;95.50
2897;DHT22;1458;49.728;9.228;2023-05-23T07:13:54;17.40;95.90
2897;DHT22;1458;49.728;9.228;2023-05-23T07:16:36;17.40;96.40
2897;DHT22;1458;49.728;9.228;2023-05-23T07:19:07;17.50;95.40
2897;DHT22;1458;49.728;9.228;2023-05-23T07:21:42;17.40;95.30
2897;DHT22;1458;49.728;9.228;2023-05-23T07:24:15;17.50;95.00
2897;DHT22;1458;49.728;9.228;2023-05-23T07:26:47;17.40;94.50
2897;DHT22;1458;49.728;9.228;2023-05-23T07:29:20;17.50;93.90
2897;DHT22;1458;49.728;9.228;2023-05-23T07:31:53;17.80;93.90
2897;DHT22;1458;49.728;9.228;2023-05-23T07:34:23;18.10;92.90
2897;DHT22;1458;49.728;9.228;2023-05-23T07:36:55;18.00;91.70
2897;DHT22;1458;49.728;9.228;2023-05-23T07:39:26;18.00;92.80
2897;DHT22;1458;49.728;9.228;2023-05-23T07:41:58;18.20;91.50
2897;DHT22;1458;49.728;9.228;2023-05-23T07:44:27;18.20;91.70
2897;DHT22;1458;49.728;9.228;2023-05-23T07:46:55;18.50;91.80
2897;DHT22;1458;49.728;9.228;2023-05-23T07:49:26;18.40;90.30
2897;DHT22;1458;49.728;9.228;2023-05-23T07:51:55;18.30;91.80
2897;DHT22;1458;49.728;9.228;2023-05-23T07:54:23;18.70;90.30
2897;DHT22;1458;49.728;9.228;2023-05-23T07:56:55;18.70;89.60
2897;DHT22;1458;49.728;9.228;2023-05-23T07:59:27;19.20;89.90
2897;DHT22;1458;49.728;9.228;2023-05-23T08:01:58;19.40;87.50
2897;DHT22;1458;49.728;9.228;2023-05-23T08:04:26;19.30;86.00
2897;DHT22;1458;49.728;9.228;2023-05-23T08:06:55;19.20;88.80
2897;DHT22;1458;49.728;9.228;2023-05-23T08:09:29;19.60;84.70
2897;DHT22;1458;49.728;9.228;2023-05-23T08:12:00;19.60;85.00
2897;DHT22;1458;49.728;9.228;2023-05-23T08:14:30;19.90;85.10
2897;DHT22;1458;49.728;9.228;2023-05-23T08:17:12;20.20;82.60
2897;DHT22;1458;49.728;9.228;2023-05-23T08:19:41;20.40;80.60
2897;DHT22;1458;49.728;9.228;2023-05-23T08:22:09;20.10;77.30
2897;DHT22;1458;49.728;9.228;2023-05-23T08:24:37;20.00;76.60
2897;DHT22;1458;49.728;9.228;2023-05-23T08:27:05;20.20;75.00
2897;DHT22;1458;49.728;9.228;2023-05-23T08:29:36;20.20;75.30
2897;DHT22;1458;49.728;9.228;2023-05-23T08:32:04;20.40;76.10
2897;DHT22;1458;49.728;9.228;2023-05-23T08:34:33;21.00;75.90
2897;DHT22;1458;49.728;9.228;2023-05-23T08:37:01;21.20;71.40
2897;DHT22;1458;49.728;9.228;2023-05-23T08:39:29;21.00;69.60
2897;DHT22;1458;49.728;9.228;2023-05-23T08:42:23;20.50;70.20
2897;DHT22;1458;49.728;9.228;2023-05-23T08:44:56;20.10;70.50
2897;DHT22;1458;49.728;9.228;2023-05-23T08:47:26;19.60;74.30
2897;DHT22;1458;49.728;9.228;2023-05-23T08:50:01;19.70;73.20
2897;DHT22;1458;49.728;9.228;2023-05-23T08:52:32;19.60;72.90
2897;DHT22;1458;49.728;9.228;2023-05-23T08:55:09;19.40;74.00
2897;DHT22;1458;49.728;9.228;2023-05-23T08:57:38;19.50;75.60
2897;DHT22;1458;49.728;9.228;2023-05-23T09:00:25;19.30;74.80
2897;DHT22;1458;49.728;9.228;2023-05-23T09:02:54;19.50;74.80
2897;DHT22;1458;49.728;9.228;2023-05-23T09:05:52;19.60;75.00
2897;DHT22;1458;49.728;9.228;2023-05-23T09:08:21;19.70;74.80
2897;DHT22;1458;49.728;9.228;2023-05-23T09:10:58;19.80;75.20
2897;DHT22;1458;49.728;9.228;2023-05-23T09:13:28;19.70;75.90
2897;DHT22;1458;49.728;9.228;2023-05-23T09:16:06;19.60;75.80
2897;DHT22;1458;49.728;9.228;2023-05-23T09:18:43;19.60;77.70
2897;DHT22;1458;49.728;9.228;2023-05-23T09:21:19;19.90;76.30
2897;DHT22;1458;49.728;9.228;2023-05-23T09:24:06;19.90;75.30
2897;DHT22;1458;49.728;9.228;2023-05-23T09:26:34;20.00;77.30
2897;DHT22;1458;49.728;9.228;2023-05-23T09:29:04;20.40;75.20
2897;DHT22;1458;49.728;9.228;2023-05-23T09:31:39;20.60;74.10
2897;DHT22;1458;49.728;9.228;2023-05-23T09:34:22;20.30;74.30
2897;DHT22;1458;49.728;9.228;2023-05-23T09:36:58;20.10;76.20
2897;DHT22;1458;49.728;9.228;2023-05-23T09:39:26;20.30;74.00
2897;DHT22;1458;49.728;9.228;2023-05-23T09:42:03;20.00;75.60
2897;DHT22;1458;49.728;9.228;2023-05-23T09:44:40;20.00;76.10
2897;DHT22;1458;49.728;9.228;2023-05-23T09:47:15;20.20;76.30
2897;DHT22;1458;49.728;9.228;2023-05-23T09:49:50;20.20;76.30
2897;DHT22;1458;49.728;9.228;2023-05-23T09:52:19;20.50;75.40
2897;DHT22;1458;49.728;9.228;2023-05-23T09:54:47;20.40;74.10
2897;DHT22;1458;49.728;9.228;2023-05-23T09:57:20;20.00;75.80
2897;DHT22;1458;49.728;9.228;2023-05-23T10:00:09;20.50;76.70
2897;DHT22;1458;49.728;9.228;2023-05-23T10:02:54;20.80;75.20
2897;DHT22;1458;49.728;9.228;2023-05-23T10:05:35;20.70;74.80
2897;DHT22;1458;49.728;9.228;2023-05-23T10:08:11;20.50;75.60
2897;DHT22;1458;49.728;9.228;2023-05-23T10:14:22;20.90;74.80
2897;DHT22;1458;49.728;9.228;2023-05-23T10:17:15;21.00;74.90
2897;DHT22;1458;49.728;9.228;2023-05-23T10:19:55;21.00;72.30
2897;DHT22;1458;49.728;9.228;2023-05-23T10:22:29;20.90;73.00
2897;DHT22;1458;49.728;9.228;2023-05-23T10:25:06;21.20;70.90
2897;DHT22;1458;49.728;9.228;2023-05-23T10:27:40;21.50;71.10
2897;DHT22;1458;49.728;9.228;2023-05-23T10:30:09;21.40;71.40
2897;DHT22;1458;49.728;9.228;2023-05-23T10:32:38;20.90;71.00
2897;DHT22;1458;49.728;9.228;2023-05-23T10:35:15;20.60;72.60
2897;DHT22;1458;49.728;9.228;2023-05-23T10:37:51;20.40;72.40
2897;DHT22;1458;49.728;9.228;2023-05-23T10:40:33;20.20;74.30
2897;DHT22;1458;49.728;9.228;2023-05-23T10:43:19;20.20;75.60
2897;DHT22;1458;49.728;9.228;2023-05-23T10:45:51;19.90;75.50
2897;DHT22;1458;49.728;9.228;2023-05-23T10:48:20;20.00;76.10
2897;DHT22;1458;49.728;9.228;2023-05-23T10:51:06;20.20;74.70
2897;DHT22;1458;49.728;9.228;2023-05-23T10:53:42;20.60;73.80
2897;DHT22;1458;49.728;9.228;2023-05-23T10:56:18;20.50;72.20
2897;DHT22;1458;49.728;9.228;2023-05-23T10:58:51;21.20;73.70
2897;DHT22;1458;49.728;9.228;2023-05-23T11:01:21;21.60;69.80
2897;DHT22;1458;49.728;9.228;2023-05-23T11:03:58;21.60;70.40
2897;DHT22;1458;49.728;9.228;2023-05-23T11:06:44;21.40;70.60
2897;DHT22;1458;49.728;9.228;2023-05-23T11:09:15;20.80;71.30
2897;DHT22;1458;49.728;9.228;2023-05-23T11:11:54;19.90;74.60
2897;DHT22;1458;49.728;9.228;2023-05-23T11:14:31;19.90;76.00
2897;DHT22;1458;49.728;9.228;2023-05-23T11:17:15;19.50;76.00
2897;DHT22;1458;49.728;9.228;2023-05-23T11:20:02;19.50;79.70
2897;DHT22;1458;49.728;9.228;2023-05-23T11:22:36;19.40;79.70
2897;DHT22;1458;49.728;9.228;2023-05-23T11:25:13;19.20;80.40
2897;DHT22;1458;49.728;9.228;2023-05-23T11:27:46;19.10;81.70
2897;DHT22;1458;49.728;9.228;2023-05-23T11:30:16;19.20;82.10
2897;DHT22;1458;49.728;9.228;2023-05-23T11:32:54;19.20;81.20
2897;DHT22;1458;49.728;9.228;2023-05-23T11:35:23;19.50;82.20
2897;DHT22;1458;49.728;9.228;2023-05-23T11:37:56;19.80;80.00
2897;DHT22;1458;49.728;9.228;2023-05-23T11:40:40;19.90;79.30
2897;DHT22;1458;49.728;9.228;2023-05-23T11:43:18;20.10;80.10
2897;DHT22;1458;49.728;9.228;2023-05-23T11:46:07;20.50;78.10
2897;DHT22;1458;49.728;9.228;2023-05-23T11:48:45;20.90;76.30
2897;DHT22;1458;49.728;9.228;2023-05-23T11:51:17;21.00;75.90
2897;DHT22;1458;49.728;9.228;2023-05-23T11:54:01;21.20;75.10
2897;DHT22;1458;49.728;9.228;2023-05-23T11:56:41;21.30;74.40
2897;DHT22;1458;49.728;9.228;2023-05-23T11:59:49;21.90;73.50
2897;DHT22;1458;49.728;9.228;2023-05-23T12:02:19;22.00;70.80
2897;DHT22;1458;49.728;9.228;2023-05-23T12:04:54;21.90;70.20
2897;DHT22;1458;49.728;9.228;2023-05-23T12:07:35;21.80;69.90
2897;DHT22;1458;49.728;9.228;2023-05-23T12:10:14;21.30;68.20
2897;DHT22;1458;49.728;9.228;2023-05-23T12:12:58;21.00;69.00
2897;DHT22;1458;49.728;9.228;2023-05-23T12:15:36;21.20;68.80
2897;DHT22;1458;49.728;9.228;2023-05-23T12:18:36;21.00;70.90
2897;DHT22;1458;49.728;9.228;2023-05-23T12:45:30;21.60;66.80
2897;DHT22;1458;49.728;9.228;2023-05-23T12:52:42;21.00;68.10
2897;DHT22;1458;49.728;9.228;2023-05-23T12:56:30;20.90;69.70
2897;DHT22;1458;49.728;9.228;2023-05-23T12:59:27;20.30;69.70
2897;DHT22;1458;49.728;9.228;2023-05-23T13:03:09;20.10;70.30
2897;DHT22;1458;49.728;9.228;2023-05-23T13:54:50;21.90;66.20
2897;DHT22;1458;49.728;9.228;2023-05-23T13:57:20;21.80;64.70
2897;DHT22;1458;49.728;9.228;2023-05-23T14:00:49;21.40;66.20
2897;DHT22;1458;49.728;9.228;2023-05-23T14:03:29;21.10;66.70
2897;DHT22;1458;49.728;9.228;2023-05-23T14:10:15;20.40;71.60
2897;DHT22;1458;49.728;9.228;2023-05-23T14:13:07;19.70;73.20
2897;DHT22;1458;49.728;9.228;2023-05-23T14:16:12;19.50;73.40
2897;DHT22;1458;49.728;9.228;2023-05-23T14:26:14;20.20;71.90
2897;DHT22;1458;49.728;9.228;2023-05-23T14:28:51;20.30;70.70
2897;DHT22;1458;49.728;9.228;2023-05-23T14:31:46;20.40;70.80
2897;DHT22;1458;49.728;9.228;2023-05-23T14:35:01;20.80;70.20
2897;DHT22;1458;49.728;9.228;2023-05-23T14:37:33;20.80;68.60
2897;DHT22;1458;49.728;9.228;2023-05-23T14:40:07;20.50;69.50
2897;DHT22;1458;49.728;9.228;2023-05-23T14:42:40;20.00;71.00
2897;DHT22;1458;49.728;9.228;2023-05-23T14:45:09;19.60;72.60
2897;DHT22;1458;49.728;9.228;2023-05-23T14:47:38;19.70;73.80
2897;DHT22;1458;49.728;9.228;2023-05-23T14:50:07;19.70;74.40
2897;DHT22;1458;49.728;9.228;2023-05-23T14:52:36;19.60;73.50
2897;DHT22;1458;49.728;9.228;2023-05-23T14:55:05;19.50;74.30
2897;DHT22;1458;49.728;9.228;2023-05-23T14:57:36;19.60;73.10
2897;DHT22;1458;49.728;9.228;2023-05-23T15:00:09;19.60;74.40
2897;DHT22;1458;49.728;9.228;2023-05-23T15:02:38;19.50;73.10
2897;DHT22;1458;49.728;9.228;2023-05-23T15:05:07;19.50;72.90
2897;DHT22;1458;49.728;9.228;2023-05-23T15:07:35;19.60;73.80
2897;DHT22;1458;49.728;9.228;2023-05-23T15:10:07;19.50;73.80
2897;DHT22;1458;49.728;9.228;2023-05-23T15:12:34;19.40;74.50
2897;DHT22;1458;49.728;9.228;2023-05-23T15:15:03;19.40;75.90
2897;DHT22;1458;49.728;9.228;2023-05-23T15:17:35;19.00;77.40
2897;DHT22;1458;49.728;9.228;2023-05-23T15:20:04;19.00;77.90
2897;DHT22;1458;49.728;9.228;2023-05-23T15:22:39;18.80;78.90
2897;DHT22;1458;49.728;9.228;2023-05-23T15:25:08;18.80;78.60
2897;DHT22;1458;49.728;9.228;2023-05-23T15:27:36;18.90;78.70
2897;DHT22;1458;49.728;9.228;2023-05-23T15:30:07;19.20;78.10
2897;DHT22;1458;49.728;9.228;2023-05-23T15:32:35;19.50;77.00
2897;DHT22;1458;49.728;9.228;2023-05-23T15:35:04;19.30;76.40
2897;DHT22;1458;49.728;9.228;2023-05-23T15:37:39;19.30;76.60
2897;DHT22;1458;49.728;9.228;2023-05-23T15:40:10;19.30;76.50
2897;DHT22;1458;49.728;9.228;2023-05-23T15:45:41;18.90;76.50
2897;DHT22;1458;49.728;9.228;2023-05-23T15:48:08;18.70;77.10
2897;DHT22;1458;49.728;9.228;2023-05-23T15:50:37;18.50;78.00
2897;DHT22;1458;49.728;9.228;2023-05-23T15:53:05;18.50;78.40
2897;DHT22;1458;49.728;9.228;2023-05-23T15:55:32;18.60;79.10
2897;DHT22;1458;49.728;9.228;2023-05-23T15:58:01;18.50;78.90
2897;DHT22;1458;49.728;9.228;2023-05-23T16:00:28;18.50;79.00
2897;DHT22;1458;49.728;9.228;2023-05-23T16:02:57;18.60;78.90
2897;DHT22;1458;49.728;9.228;2023-05-23T16:05:24;18.30;79.30
2897;DHT22;1458;49.728;9.228;2023-05-23T16:07:52;18.20;79.10
2897;DHT22;1458;49.728;9.228;2023-05-23T16:10:19;18.00;80.80
2897;DHT22;1458;49.728;9.228;2023-05-23T16:12:48;17.90;81.40
2897;DHT22;1458;49.728;9.228;2023-05-23T16:15:15;18.10;81.10
2897;DHT22;1458;49.728;9.228;2023-05-23T16:17:44;18.20;82.10
2897;DHT22;1458;49.728;9.228;2023-05-23T16:20:13;18.20;80.90
2897;DHT22;1458;49.728;9.228;2023-05-23T16:22:41;18.00;81.10
2897;DHT22;1458;49.728;9.228;2023-05-23T16:25:10;18.20;80.80
2897;DHT22;1458;49.728;9.228;2023-05-23T16:27:38;18.20;79.90
2897;DHT22;1458;49.728;9.228;2023-05-23T16:30:06;18.00;79.90
2897;DHT22;1458;49.728;9.228;2023-05-23T16:32:34;18.00;79.70
2897;DHT22;1458;49.728;9.228;2023-05-23T16:35:02;18.00;81.00
2897;DHT22;1458;49.728;9.228;2023-05-23T16:37:31;18.10;80.30
2897;DHT22;1458;49.728;9.228;2023-05-23T16:39:58;18.00;79.40
2897;DHT22;1458;49.728;9.228;2023-05-23T16:42:26;18.30;77.70
2897;DHT22;1458;49.728;9.228;2023-05-23T16:44:53;18.50;76.00
2897;DHT22;1458;49.728;9.228;2023-05-23T16:47:20;18.30;75.90
2897;DHT22;1458;49.728;9.228;2023-05-23T16:49:48;18.40;76.10
2897;DHT22;1458;49.728;9.228;2023-05-23T16:52:15;18.30;76.10
2897;DHT22;1458;49.728;9.228;2023-05-23T16:54:44;18.30;77.00
2897;DHT22;1458;49.728;9.228;2023-05-23T16:57:12;18.30;77.00
2897;DHT22;1458;49.728;9.228;2023-05-23T16:59:39;18.20;76.50
2897;DHT22;1458;49.728;9.228;2023-05-23T17:02:08;18.00;77.90
2897;DHT22;1458;49.728;9.228;2023-05-23T17:04:37;17.70;78.10
2897;DHT22;1458;49.728;9.228;2023-05-23T17:07:04;17.80;78.90
2897;DHT22;1458;49.728;9.228;2023-05-23T17:09:34;17.70;79.40
2897;DHT22;1458;49.728;9.228;2023-05-23T17:12:03;17.60;79.60
2897;DHT22;1458;49.728;9.228;2023-05-23T17:14:31;17.60;80.20
2897;DHT22;1458;49.728;9.228;2023-05-23T17:16:59;17.60;81.40
2897;DHT22;1458;49.728;9.228;2023-05-23T17:19:28;17.60;81.70
2897;DHT22;1458;49.728;9.228;2023-05-23T17:21:56;17.50;80.70
2897;DHT22;1458;49.728;9.228;2023-05-23T17:24:24;17.40;81.50
2897;DHT22;1458;49.728;9.228;2023-05-23T17:26:51;17.50;82.00
2897;DHT22;1458;49.728;9.228;2023-05-23T17:29:20;17.40;82.10
2897;DHT22;1458;49.728;9.228;2023-05-23T17:31:48;17.50;83.10
2897;DHT22;1458;49.728;9.228;2023-05-23T17:34:15;17.50;81.10
2897;DHT22;1458;49.728;9.228;2023-05-23T17:36:43;17.30;81.20
2897;DHT22;1458;49.728;9.228;2023-05-23T17:39:10;17.10;81.60
2897;DHT22;1458;49.728;9.228;2023-05-23T17:41:39;17.20;81.90
2897;DHT22;1458;49.728;9.228;2023-05-23T17:44:07;17.20;82.00
2897;DHT22;1458;49.728;9.228;2023-05-23T17:46:35;17.20;81.90
2897;DHT22;1458;49.728;9.228;2023-05-23T17:49:03;17.20;81.90
2897;DHT22;1458;49.728;9.228;2023-05-23T17:51:30;17.20;80.80
2897;DHT22;1458;49.728;9.228;2023-05-23T17:53:58;17.00;80.00
2897;DHT22;1458;49.728;9.228;2023-05-23T17:56:26;16.80;79.80
2897;DHT22;1458;49.728;9.228;2023-05-23T17:58:53;16.70;80.60
2897;DHT22;1458;49.728;9.228;2023-05-23T18:01:22;16.70;80.90
2897;DHT22;1458;49.728;9.228;2023-05-23T18:03:52;16.50;81.40
2897;DHT22;1458;49.728;9.228;2023-05-23T18:06:19;16.40;82.20
2897;DHT22;1458;49.728;9.228;2023-05-23T18:08:47;16.50;82.40
2897;DHT22;1458;49.728;9.228;2023-05-23T18:11:14;16.50;81.50
2897;DHT22;1458;49.728;9.228;2023-05-23T18:13:42;16.40;82.90